createdAt,value
2023-02-28T00:01:31.944Z,4.00
2023-02-28T00:03:58.987Z,4.10
2023-02-28T00:06:27.021Z,4.25
2023-02-28T00:08:53.884Z,3.85
2023-02-28T00:11:20.610Z,3.90
2023-02-28T00:13:48.724Z,4.20
2023-02-28T00:16:24.852Z,4.57
2023-02-28T00:18:51.948Z,4.30
2023-02-28T00:21:20.654Z,4.20
2023-02-28T00:23:47.737Z,4.07
2023-02-28T00:26:14.563Z,3.97
2023-02-28T00:28:41.288Z,4.32
2023-02-28T00:31:08.078Z,3.63
2023-02-28T00:33:34.816Z,4.22
2023-02-28T00:36:08.249Z,4.47
2023-02-28T00:38:35.334Z,3.90
2023-02-28T00:41:05.473Z,4.40
2023-02-28T00:43:34.709Z,4.43
2023-02-28T00:46:02.154Z,3.75
2023-02-28T00:48:29.067Z,3.83
2023-02-28T00:50:56.029Z,4.15
2023-02-28T00:53:22.993Z,4.47
2023-02-28T00:55:51.316Z,4.13
2023-02-28T00:58:18.149Z,4.05
2023-02-28T01:00:49.765Z,3.97
2023-02-28T01:03:18.898Z,4.18
2023-02-28T01:05:46.132Z,3.72
2023-02-28T01:08:14.555Z,4.32
2023-02-28T01:10:41.509Z,4.13
2023-02-28T01:13:08.250Z,3.83
2023-02-28T01:15:35.085Z,4.25
2023-02-28T01:18:01.820Z,3.92
2023-02-28T01:20:28.557Z,4.30
2023-02-28T01:22:55.487Z,4.70
2023-02-28T01:25:22.283Z,3.63
2023-02-28T01:27:49.041Z,3.50
2023-02-28T01:30:15.930Z,4.07
2023-02-28T01:32:42.633Z,4.90
2023-02-28T01:35:09.621Z,4.60
2023-02-28T01:37:36.758Z,4.35
2023-02-28T01:40:04.175Z,4.43
2023-02-28T01:42:30.915Z,4.47
2023-02-28T01:45:18.988Z,4.00
2023-02-28T01:47:47.097Z,4.03
2023-02-28T01:50:20.269Z,4.35
2023-02-28T01:52:49.357Z,4.95
2023-02-28T01:55:17.809Z,6.35
2023-02-28T01:57:52.447Z,4.50
2023-02-28T02:00:24.788Z,5.20
2023-02-28T02:05:28.003Z,3.08
2023-02-28T02:08:04.596Z,4.32
2023-02-28T02:10:37.414Z,4.45
2023-02-28T02:13:35.551Z,4.65
2023-02-28T02:16:09.029Z,4.18
2023-02-28T02:18:49.222Z,4.45
2023-02-28T02:25:29.562Z,3.03
2023-02-28T02:28:37.541Z,4.30
2023-02-28T02:31:41.695Z,4.10
2023-02-28T02:34:43.907Z,4.47
2023-02-28T02:37:25.981Z,3.83
2023-02-28T02:40:18.145Z,3.85
2023-02-28T02:43:02.803Z,5.35
2023-02-28T02:46:07.367Z,3.55
2023-02-28T02:48:37.449Z,4.00
2023-02-28T02:51:12.900Z,4.13
2023-02-28T02:53:52.227Z,4.47
2023-02-28T02:56:24.964Z,4.05
2023-02-28T02:58:56.691Z,4.60
2023-02-28T03:01:29.660Z,5.85
2023-02-28T03:04:01.429Z,5.05
2023-02-28T03:06:28.312Z,4.53
2023-02-28T03:08:55.107Z,4.32
2023-02-28T03:11:21.940Z,4.05
2023-02-28T03:14:20.155Z,5.00
2023-02-28T03:17:12.722Z,4.25
2023-02-28T03:20:16.224Z,4.20
2023-02-28T03:23:08.952Z,4.18
2023-02-28T03:26:34.624Z,3.80
2023-02-28T03:29:18.184Z,4.50
2023-02-28T03:32:15.611Z,4.57
2023-02-28T03:34:57.909Z,4.30
2023-02-28T03:37:26.502Z,4.43
2023-02-28T03:40:21.147Z,3.67
2023-02-28T03:42:52.811Z,4.70
2023-02-28T03:45:28.535Z,4.15
2023-02-28T03:48:02.425Z,5.28
2023-02-28T03:50:54.122Z,4.57
2023-02-28T03:53:29.216Z,4.43
2023-02-28T03:56:15.946Z,4.00
2023-02-28T03:58:54.707Z,3.72
2023-02-28T04:01:45.277Z,4.65
2023-02-28T04:04:13.547Z,4.72
2023-02-28T04:06:41.286Z,4.53
2023-02-28T04:11:52.490Z,4.70
2023-02-28T04:14:19.788Z,5.20
2023-02-28T04:16:47.021Z,4.38
2023-02-28T04:19:15.254Z,4.25
2023-02-28T04:21:48.793Z,5.05
2023-02-28T04:24:24.775Z,4.60
2023-02-28T04:26:54.807Z,4.00
2023-02-28T04:29:28.341Z,4.50
2023-02-28T04:31:58.881Z,5.18
2023-02-28T04:34:27.991Z,4.15
2023-02-28T04:37:11.872Z,4.85
2023-02-28T04:39:39.959Z,3.75
2023-02-28T04:42:07.468Z,4.70
2023-02-28T04:44:34.207Z,4.47
2023-02-28T04:47:01.188Z,4.13
2023-02-28T04:49:28.010Z,4.00
2023-02-28T04:51:54.874Z,4.30
2023-02-28T04:54:21.613Z,4.45
2023-02-28T04:56:50.656Z,4.20
2023-02-28T04:59:17.873Z,4.00
2023-02-28T05:01:48.817Z,4.15
2023-02-28T05:04:16.297Z,4.78
2023-02-28T05:06:43.286Z,3.85
2023-02-28T05:09:12.324Z,4.22
2023-02-28T05:11:39.997Z,4.40
2023-02-28T05:14:14.239Z,3.70
2023-02-28T05:16:41.392Z,4.40
2023-02-28T05:19:08.165Z,4.05
2023-02-28T05:21:38.744Z,4.45
2023-02-28T05:24:10.912Z,3.95
2023-02-28T05:26:43.648Z,4.07
2023-02-28T05:29:11.300Z,3.17
2023-02-28T05:31:39.489Z,3.83
2023-02-28T05:34:06.407Z,4.18
2023-02-28T05:36:33.974Z,3.22
2023-02-28T06:02:43.411Z,3.17
2023-02-28T06:05:19.096Z,3.28
2023-02-28T06:07:45.829Z,3.20
2023-02-28T06:10:13.369Z,3.30
2023-02-28T06:12:42.392Z,4.00
2023-02-28T06:15:14.882Z,3.22
2023-02-28T06:17:45.707Z,3.47
2023-02-28T06:20:15.959Z,3.22
2023-02-28T06:22:42.691Z,3.60
2023-02-28T06:25:11.734Z,3.35
2023-02-28T06:27:39.029Z,3.60
2023-02-28T06:30:06.847Z,3.28
2023-02-28T06:32:33.600Z,3.28
2023-02-28T06:35:00.318Z,3.25
2023-02-28T06:37:27.136Z,3.63
2023-02-28T06:39:56.680Z,3.53
2023-02-28T06:42:29.537Z,4.00
2023-02-28T06:44:57.207Z,3.05
2023-02-28T06:47:24.629Z,3.33
2023-02-28T06:49:53.408Z,3.15
2023-02-28T06:52:20.163Z,3.72
2023-02-28T06:54:46.897Z,3.63
2023-02-28T06:57:13.676Z,3.75
2023-02-28T06:59:40.437Z,3.15
2023-02-28T07:02:08.525Z,3.28
2023-02-28T07:04:35.290Z,4.05
2023-02-28T07:07:01.997Z,3.83
2023-02-28T07:09:30.930Z,3.65
2023-02-28T07:11:57.660Z,3.60
2023-02-28T07:14:24.404Z,3.40
2023-02-28T07:16:51.278Z,3.70
2023-02-28T07:19:17.992Z,3.42
2023-02-28T07:21:44.688Z,3.72
2023-02-28T07:24:11.493Z,4.40
2023-02-28T07:26:38.184Z,3.60
2023-02-28T07:29:04.880Z,3.63
2023-02-28T07:31:31.926Z,3.47
2023-02-28T07:33:59.360Z,4.07
2023-02-28T07:36:27.156Z,3.67
2023-02-28T07:38:54.160Z,3.75
2023-02-28T07:41:22.805Z,4.30
2023-02-28T07:43:49.740Z,3.97
2023-02-28T07:46:17.771Z,3.53
2023-02-28T07:48:45.474Z,4.18
2023-02-28T07:51:12.224Z,3.45
2023-02-28T07:53:39.001Z,3.30
2023-02-28T07:56:06.807Z,3.50
2023-02-28T07:58:33.610Z,3.72
2023-02-28T08:01:10.934Z,3.60
2023-02-28T08:03:39.464Z,3.42
2023-02-28T08:06:08.567Z,3.80
2023-02-28T08:08:35.424Z,3.08
2023-02-28T08:11:04.094Z,2.95
2023-02-28T08:13:31.275Z,2.88
2023-02-28T08:15:58.145Z,2.92
2023-02-28T08:18:25.370Z,2.88
2023-02-28T08:20:52.411Z,2.90
2023-02-28T08:23:19.118Z,3.58
2023-02-28T08:25:46.173Z,2.88
2023-02-28T08:28:12.944Z,2.92
2023-02-28T08:30:41.842Z,3.03
2023-02-28T08:33:08.754Z,2.53
2023-02-28T08:35:38.047Z,2.78
2023-02-28T08:38:04.950Z,2.28
2023-02-28T08:40:31.681Z,2.55
2023-02-28T08:42:59.024Z,3.00
2023-02-28T08:45:25.843Z,2.30
2023-02-28T08:47:53.449Z,2.65
2023-02-28T08:50:20.186Z,3.08
2023-02-28T08:52:46.944Z,2.00
2023-02-28T08:55:13.949Z,2.30
2023-02-28T08:57:40.715Z,2.35
2023-02-28T09:00:08.762Z,2.40
2023-02-28T09:02:35.454Z,2.08
2023-02-28T09:05:02.166Z,2.05
2023-02-28T09:07:28.848Z,1.85
2023-02-28T09:09:55.659Z,1.70
2023-02-28T09:12:27.442Z,1.90
2023-02-28T09:14:54.465Z,1.80
2023-02-28T09:17:21.738Z,2.05
2023-02-28T09:19:51.513Z,1.80
2023-02-28T09:22:18.299Z,1.75
2023-02-28T09:24:45.736Z,1.90
2023-02-28T09:27:12.572Z,1.67
2023-02-28T09:29:39.360Z,1.50
2023-02-28T09:32:08.708Z,1.70
2023-02-28T09:34:37.771Z,1.67
2023-02-28T09:37:04.745Z,1.60
2023-02-28T09:39:32.532Z,1.40
2023-02-28T09:41:59.689Z,1.70
2023-02-28T09:44:33.366Z,1.58
2023-02-28T09:47:24.992Z,1.92
2023-02-28T09:49:51.846Z,1.40
2023-02-28T09:52:22.821Z,1.33
2023-02-28T09:54:49.628Z,1.75
2023-02-28T09:57:40.252Z,1.50
2023-02-28T10:00:19.926Z,1.27
2023-02-28T10:03:21.780Z,1.20
2023-02-28T10:05:59.993Z,1.30
2023-02-28T10:08:30.356Z,1.77
2023-02-28T10:11:02.731Z,1.23
2023-02-28T10:14:06.965Z,1.50
2023-02-28T10:16:56.149Z,1.38
2023-02-28T10:19:45.765Z,1.30
2023-02-28T10:22:19.045Z,1.67
2023-02-28T10:24:54.845Z,1.63
2023-02-28T10:27:30.273Z,1.50
2023-02-28T10:30:01.310Z,1.60
2023-02-28T10:32:33.647Z,1.60
2023-02-28T10:35:07.657Z,1.80
2023-02-28T10:37:39.046Z,1.63
2023-02-28T10:40:36.389Z,1.60
2023-02-28T10:43:03.086Z,1.50
2023-02-28T10:45:33.010Z,1.88
2023-02-28T10:48:53.767Z,1.90
2023-02-28T10:51:23.266Z,1.60
2023-02-28T10:54:03.106Z,1.60
2023-02-28T10:56:31.230Z,1.40
2023-02-28T10:59:27.128Z,1.40
2023-02-28T11:01:54.248Z,1.58
2023-02-28T11:04:33.896Z,1.63
2023-02-28T11:07:06.406Z,1.67
2023-02-28T11:09:41.581Z,1.40
2023-02-28T11:12:46.854Z,1.17
2023-02-28T11:15:21.776Z,1.40
2023-02-28T11:18:33.353Z,1.40
2023-02-28T11:21:02.385Z,1.90
2023-02-28T11:23:32.821Z,1.65
2023-02-28T11:26:02.706Z,1.95
2023-02-28T11:28:36.615Z,1.38
2023-02-28T11:31:14.784Z,1.90
2023-02-28T11:33:56.574Z,1.75
2023-02-28T11:36:32.681Z,1.55
2023-02-28T11:39:11.595Z,1.35
2023-02-28T11:41:49.519Z,1.70
2023-02-28T11:44:37.276Z,1.42
2023-02-28T11:47:30.221Z,2.00
2023-02-28T11:50:40.470Z,1.73
2023-02-28T11:53:43.840Z,1.80
2023-02-28T11:56:37.984Z,1.80
2023-02-28T11:59:34.850Z,1.80
2023-02-28T12:02:23.215Z,1.73
2023-02-28T12:04:56.856Z,2.08
2023-02-28T12:08:08.004Z,1.40
2023-02-28T12:10:54.113Z,1.60
2023-02-28T12:13:39.106Z,1.90
2023-02-28T12:16:09.068Z,1.35
2023-02-28T12:18:55.019Z,1.70
2023-02-28T12:22:06.559Z,1.50
2023-02-28T12:25:14.398Z,2.47
2023-02-28T12:27:45.611Z,1.50
2023-02-28T12:30:35.549Z,1.40
2023-02-28T12:33:13.430Z,2.33
2023-02-28T12:35:57.848Z,1.70
2023-02-28T12:38:35.902Z,1.48
2023-02-28T12:41:15.565Z,1.50
2023-02-28T12:43:49.678Z,1.58
2023-02-28T12:46:34.868Z,2.00
2023-02-28T12:49:31.317Z,1.80
2023-02-28T12:52:00.716Z,2.58
2023-02-28T12:54:58.179Z,1.73
2023-02-28T12:57:40.108Z,1.27
2023-02-28T13:00:31.986Z,1.60
2023-02-28T13:03:42.596Z,1.48
2023-02-28T13:06:42.042Z,1.33
2023-02-28T13:09:15.644Z,1.70
2023-02-28T13:11:49.052Z,1.70
2023-02-28T13:14:39.364Z,2.20
2023-02-28T13:17:14.749Z,1.70
2023-02-28T13:19:52.622Z,1.80
2023-02-28T13:22:47.960Z,2.05
2023-02-28T13:25:23.849Z,2.20
2023-02-28T13:27:57.279Z,1.90
2023-02-28T13:30:59.494Z,2.03
2023-02-28T13:33:31.009Z,2.10
2023-02-28T13:36:19.780Z,1.65
2023-02-28T13:38:50.985Z,1.90
2023-02-28T13:41:30.068Z,1.63
2023-02-28T13:44:10.226Z,2.40
2023-02-28T13:46:57.124Z,2.55
2023-02-28T13:49:24.096Z,1.60
2023-02-28T13:52:07.046Z,1.83
2023-02-28T13:54:59.926Z,1.98
2023-02-28T13:58:00.324Z,1.70
2023-02-28T14:01:05.491Z,2.13
2023-02-28T14:04:04.338Z,2.00
2023-02-28T14:06:34.075Z,1.80
2023-02-28T14:09:08.724Z,1.80
2023-02-28T14:11:41.342Z,1.88
2023-02-28T14:14:10.775Z,2.00
2023-02-28T14:16:48.615Z,1.90
2023-02-28T14:19:24.718Z,1.80
2023-02-28T14:22:20.284Z,1.92
2023-02-28T14:25:12.227Z,2.35
2023-02-28T14:28:15.264Z,2.10
2023-02-28T14:30:52.630Z,2.95
2023-02-28T14:33:30.370Z,4.50
2023-02-28T14:36:38.301Z,3.47
2023-02-28T14:39:23.910Z,2.72
2023-02-28T14:41:50.846Z,2.75
2023-02-28T14:44:23.064Z,2.30
2023-02-28T14:49:46.672Z,2.30
2023-02-28T14:52:20.746Z,2.15
2023-02-28T14:54:56.306Z,1.77
2023-02-28T14:57:32.874Z,1.98
2023-02-28T15:00:21.690Z,1.77
2023-02-28T15:02:48.500Z,2.30
2023-02-28T15:05:17.911Z,1.83
2023-02-28T15:07:46.291Z,1.73
2023-02-28T15:10:28.191Z,1.65
2023-02-28T15:13:02.259Z,2.40
2023-02-28T15:16:01.316Z,2.00
2023-02-28T15:18:53.398Z,2.30
2023-02-28T15:21:23.069Z,3.00
2023-02-28T15:24:06.003Z,2.13
2023-02-28T15:26:41.756Z,2.08
2023-02-28T15:29:16.222Z,2.35
2023-02-28T15:32:01.745Z,2.10
2023-02-28T15:34:45.293Z,2.05
2023-02-28T15:37:33.755Z,2.17
2023-02-28T15:40:17.042Z,2.15
2023-02-28T15:42:44.842Z,2.47
2023-02-28T15:45:47.014Z,2.83
2023-02-28T15:48:26.212Z,1.90
2023-02-28T15:50:56.985Z,2.33
2023-02-28T15:53:36.512Z,2.20
2023-02-28T15:56:07.550Z,1.98
2023-02-28T15:58:36.197Z,2.50
2023-02-28T16:01:27.446Z,2.25
2023-02-28T16:03:58.048Z,1.98
2023-02-28T16:06:40.071Z,2.80
2023-02-28T16:09:10.915Z,2.88
2023-02-28T16:11:48.546Z,2.25
2023-02-28T16:14:25.977Z,1.88
2023-02-28T16:16:56.115Z,2.20
2023-02-28T16:19:24.581Z,2.05
2023-02-28T16:21:52.045Z,2.58
2023-02-28T16:24:19.048Z,2.30
2023-02-28T16:26:49.901Z,2.30
2023-02-28T16:29:28.994Z,2.45
2023-02-28T16:31:55.851Z,2.40
2023-02-28T16:34:23.500Z,2.53
2023-02-28T16:36:51.100Z,3.15
2023-02-28T16:39:18.153Z,2.70
2023-02-28T16:41:47.080Z,2.47
2023-02-28T16:44:29.249Z,2.50
2023-02-28T16:46:56.133Z,3.10
2023-02-28T16:49:22.896Z,2.67
2023-02-28T16:51:49.622Z,2.55
2023-02-28T16:54:16.419Z,2.65
2023-02-28T16:56:49.172Z,2.22
2023-02-28T16:59:28.536Z,2.10
2023-02-28T17:01:58.785Z,2.45
2023-02-28T17:04:27.636Z,2.85
2023-02-28T17:06:54.378Z,2.22
2023-02-28T17:09:26.306Z,2.47
2023-02-28T17:11:57.647Z,2.53
2023-02-28T17:14:24.411Z,2.58
2023-02-28T17:16:51.257Z,2.50
2023-02-28T17:19:23.195Z,2.60
2023-02-28T17:21:49.936Z,2.83
2023-02-28T17:24:25.335Z,2.38
2023-02-28T17:26:56.708Z,2.72
2023-02-28T17:29:25.874Z,2.78
2023-02-28T17:31:52.787Z,2.60
2023-02-28T17:34:20.474Z,3.17
2023-02-28T17:36:51.722Z,3.85
2023-02-28T17:39:24.771Z,4.30
2023-02-28T17:41:56.335Z,4.10
2023-02-28T17:44:25.053Z,4.07
2023-02-28T17:46:53.226Z,5.22
2023-02-28T17:49:20.955Z,4.22
2023-02-28T17:51:48.608Z,5.13
2023-02-28T17:54:18.225Z,5.97
2023-02-28T17:56:45.918Z,5.40
2023-02-28T17:59:13.706Z,4.63
2023-02-28T18:01:40.742Z,4.70
2023-02-28T18:04:09.237Z,4.28
2023-02-28T18:06:48.573Z,4.90
2023-02-28T18:09:18.912Z,5.18
2023-02-28T18:11:51.417Z,4.55
2023-02-28T18:14:21.797Z,4.97
2023-02-28T18:16:48.522Z,5.18
2023-02-28T18:19:17.019Z,4.65
2023-02-28T18:21:53.057Z,5.05
2023-02-28T18:24:22.782Z,4.68
2023-02-28T18:26:52.008Z,3.80
2023-02-28T18:29:25.731Z,4.18
2023-02-28T18:31:58.669Z,4.38
2023-02-28T18:34:26.262Z,5.22
2023-02-28T18:36:53.242Z,3.78
2023-02-28T18:39:20.599Z,4.30
2023-02-28T18:41:47.361Z,4.18
2023-02-28T18:44:19.812Z,4.32
2023-02-28T18:46:48.988Z,3.80
2023-02-28T18:49:16.638Z,4.13
2023-02-28T18:51:46.513Z,4.97
2023-02-28T18:54:15.435Z,4.43
2023-02-28T18:56:42.502Z,3.92
2023-02-28T18:59:09.312Z,4.55
2023-02-28T19:01:38.641Z,4.63
2023-02-28T19:04:07.081Z,4.95
2023-02-28T19:06:34.509Z,4.63
2023-02-28T19:09:03.595Z,4.88
2023-02-28T19:11:31.312Z,4.80
2023-02-28T19:13:58.436Z,4.78
2023-02-28T19:16:27.616Z,5.13
2023-02-28T19:18:54.924Z,4.30
2023-02-28T19:21:23.931Z,3.60
2023-02-28T19:23:50.763Z,4.40
2023-02-28T19:26:25.362Z,5.43
2023-02-28T19:28:52.119Z,6.10
2023-02-28T19:31:26.142Z,5.38
2023-02-28T19:33:53.378Z,6.15
2023-02-28T19:36:21.788Z,4.63
2023-02-28T19:38:51.654Z,5.38
2023-02-28T19:41:18.975Z,5.35
2023-02-28T19:43:46.844Z,4.47
2023-02-28T19:46:14.124Z,4.75
2023-02-28T19:48:42.341Z,4.70
2023-02-28T19:51:12.382Z,5.10
2023-02-28T19:53:41.222Z,5.75
2023-02-28T19:56:09.599Z,5.28
2023-02-28T19:58:38.574Z,4.10
2023-02-28T20:01:19.018Z,5.25
2023-02-28T20:03:50.412Z,5.97
2023-02-28T20:06:17.618Z,5.27
2023-02-28T20:08:44.422Z,5.93
2023-02-28T20:11:17.157Z,6.38
2023-02-28T20:13:46.497Z,5.68
2023-02-28T20:16:14.743Z,5.22
2023-02-28T20:18:45.737Z,6.15
2023-02-28T20:21:14.032Z,5.28
2023-02-28T20:23:43.750Z,5.72
2023-02-28T20:26:12.332Z,5.72
2023-02-28T20:28:39.904Z,4.80
2023-02-28T20:31:20.504Z,5.68
2023-02-28T20:33:48.667Z,5.97
2023-02-28T20:36:16.047Z,5.70
2023-02-28T20:38:43.652Z,5.15
2023-02-28T20:41:12.832Z,4.72
2023-02-28T20:43:40.995Z,4.65
2023-02-28T20:46:08.213Z,4.45
2023-02-28T20:48:38.292Z,4.47
2023-02-28T20:51:06.726Z,4.75
2023-02-28T20:53:36.918Z,4.50
2023-02-28T20:56:16.030Z,5.88
2023-02-28T20:58:45.960Z,5.22
2023-02-28T21:01:23.545Z,5.20
2023-02-28T21:04:03.230Z,4.60
2023-02-28T21:06:34.064Z,4.50
2023-02-28T21:09:01.088Z,5.70
2023-02-28T21:11:30.746Z,6.97
2023-02-28T21:14:04.656Z,9.13
2023-02-28T21:16:32.589Z,8.32
2023-02-28T21:19:06.189Z,8.43
2023-02-28T21:21:38.933Z,7.53
2023-02-28T21:24:06.741Z,6.20
2023-02-28T21:26:33.762Z,5.30
2023-02-28T21:29:03.074Z,5.93
2023-02-28T21:31:34.240Z,5.05
2023-02-28T21:34:07.104Z,5.85
2023-02-28T21:36:39.466Z,5.82
2023-02-28T21:39:18.333Z,6.13
2023-02-28T21:41:45.895Z,4.13
2023-02-28T21:44:18.333Z,3.85
2023-02-28T21:46:50.180Z,4.57
2023-02-28T21:49:17.113Z,4.65
2023-02-28T21:51:46.431Z,4.25
2023-02-28T21:54:13.813Z,4.45
2023-02-28T21:56:40.686Z,4.10
2023-02-28T21:59:09.418Z,4.40
2023-02-28T22:01:43.328Z,4.50
2023-02-28T22:04:21.203Z,4.40
2023-02-28T22:07:08.081Z,3.78
2023-02-28T22:09:34.794Z,2.97
2023-02-28T22:12:01.509Z,3.88
2023-02-28T22:14:28.254Z,3.70
2023-02-28T22:16:56.881Z,3.78
2023-02-28T22:19:24.361Z,3.92
2023-02-28T22:21:53.523Z,4.28
2023-02-28T22:24:23.968Z,4.50
2023-02-28T22:26:51.988Z,3.92
2023-02-28T22:29:19.130Z,4.18
2023-02-28T22:31:45.998Z,4.82
2023-02-28T22:34:14.673Z,4.22
2023-02-28T22:36:43.527Z,4.03
2023-02-28T22:39:11.236Z,3.70
2023-02-28T22:41:40.409Z,4.45
2023-02-28T22:44:07.422Z,4.40
2023-02-28T22:46:35.735Z,5.53
2023-02-28T22:49:04.912Z,5.55
2023-02-28T22:51:32.102Z,4.82
2023-02-28T22:53:59.387Z,5.35
2023-02-28T22:56:29.724Z,4.70
2023-02-28T22:58:59.538Z,4.70
2023-02-28T23:01:30.474Z,5.10
2023-02-28T23:03:58.011Z,4.45
2023-02-28T23:06:31.924Z,4.65
2023-02-28T23:09:02.944Z,4.47
2023-02-28T23:11:34.855Z,5.78
2023-02-28T23:14:03.325Z,4.18
2023-02-28T23:16:38.970Z,4.40
2023-02-28T23:19:19.207Z,3.85
2023-02-28T23:21:46.037Z,4.47
2023-02-28T23:24:15.312Z,4.40
2023-02-28T23:26:45.819Z,4.22
2023-02-28T23:29:15.079Z,4.47
2023-02-28T23:31:41.961Z,3.80
2023-02-28T23:34:09.390Z,4.97
2023-02-28T23:36:45.793Z,4.50
2023-02-28T23:39:16.082Z,4.40
2023-02-28T23:41:43.182Z,4.00
2023-02-28T23:44:18.544Z,4.13
2023-02-28T23:46:48.263Z,3.50
2023-02-28T23:49:20.820Z,3.95
2023-02-28T23:51:49.435Z,4.82
2023-02-28T23:54:18.793Z,3.80
2023-02-28T23:56:45.639Z,4.70
2023-02-28T23:59:14.916Z,4.93
